< Typhoon 197604 1976 Season Typhoon 197606 >
Typhoon 197605 (OLGA)
General InformationTrack Information on Google Maps || Disaster Info.ResourceGoogle EarthGE AnimationAtom FeedGeoJSON
Detalied Best Track (Time Zone = UTC)
Year Month Day Hour Lat. Long. Pressure (hPa) Wind (kt) Class Image Chart
1976 5 11 18 10.3 138.4 1004 0 2 -- Chart
1976 5 12 00 10.4 137.6 1004 0 2 -- Chart
1976 5 12 06 10.7 136.8 1004 0 2 -- Chart
1976 5 12 12 11.0 136.2 1004 0 2 -- Chart
1976 5 12 18 11.4 135.6 1004 0 2 -- Chart
1976 5 13 00 11.8 135.0 1004 0 2 -- Chart
1976 5 13 06 12.2 134.1 1004 0 9 -- Chart
1976 5 13 12 12.2 133.7 1000 0 9 -- Chart
1976 5 13 18 12.0 133.3 1000 0 9 -- Chart
1976 5 14 00 11.8 133.2 1000 0 9 -- Chart
1976 5 14 06 11.5 133.0 1000 0 9 -- Chart
1976 5 14 12 11.2 133.0 1000 0 9 -- Chart
1976 5 14 18 10.9 133.0 1000 0 9 -- Chart
1976 5 15 00 10.7 133.0 1000 0 9 -- Chart
1976 5 15 06 10.7 132.7 1000 0 9 -- Chart
1976 5 15 12 11.0 132.0 1000 0 9 -- Chart
1976 5 15 18 11.2 131.5 1000 0 9 -- Chart
1976 5 16 00 11.7 131.0 1000 0 9 -- Chart
1976 5 16 06 12.1 130.6 998 0 9 -- Chart
1976 5 16 12 12.7 130.2 994 0 9 -- Chart
1976 5 16 18 13.3 129.9 992 0 9 -- Chart
1976 5 17 00 13.8 129.4 992 0 9 -- Chart
1976 5 17 06 14.2 128.7 994 0 9 -- Chart
1976 5 17 12 14.4 127.7 992 0 9 -- Chart
1976 5 17 18 14.7 126.7 990 0 9 -- Chart
1976 5 18 00 14.8 126.2 990 0 9 -- Chart
1976 5 18 06 15.0 125.5 990 0 9 -- Chart
1976 5 18 12 14.8 125.2 990 0 9 -- Chart
1976 5 18 18 15.3 125.3 990 0 9 -- Chart
1976 5 19 00 15.7 124.9 990 0 9 -- Chart
1976 5 19 06 15.4 124.4 985 0 9 -- Chart
1976 5 19 12 15.4 124.7 985 0 9 -- Chart
1976 5 19 18 15.8 124.7 985 0 9 -- Chart
1976 5 20 00 16.2 124.6 980 0 9 -- Chart
1976 5 20 06 16.4 124.0 980 0 9 -- Chart
1976 5 20 12 16.4 123.5 975 0 9 -- Chart
1976 5 20 18 16.5 122.8 960 0 9 -- Chart
1976 5 21 00 16.6 122.2 940 0 9 -- Chart
1976 5 21 06 16.5 121.8 970 0 9 -- Chart
1976 5 21 12 16.2 121.3 975 0 9 -- Chart
1976 5 21 18 15.9 121.4 975 0 9 -- Chart
1976 5 22 00 15.8 121.7 980 0 9 -- Chart
1976 5 22 06 16.2 121.7 980 0 9 -- Chart
1976 5 22 12 16.5 120.9 985 0 9 -- Chart
1976 5 22 18 16.6 120.8 985 0 9 -- Chart
1976 5 23 00 16.7 120.5 985 0 9 -- Chart
1976 5 23 06 16.7 120.3 985 0 9 -- Chart
1976 5 23 12 16.5 120.0 985 0 9 -- Chart
1976 5 23 18 16.2 119.8 985 0 9 -- Chart
1976 5 24 00 16.0 119.5 985 0 9 -- Chart
1976 5 24 06 16.4 119.4 990 0 9 -- Chart
1976 5 24 12 16.7 119.5 990 0 9 -- Chart
1976 5 24 18 17.0 119.7 990 0 9 -- Chart
1976 5 25 00 17.5 119.7 990 0 9 -- Chart
1976 5 25 06 18.3 120.0 990 0 9 -- Chart
1976 5 25 12 19.6 120.4 990 0 9 -- Chart
1976 5 25 18 20.8 121.3 990 0 9 -- Chart
1976 5 26 00 22.2 122.5 990 0 9 -- Chart
1976 5 26 06 22.8 123.7 990 0 9 -- Chart
1976 5 26 12 24.2 124.5 994 0 9 -- Chart
1976 5 26 18 26.4 125.6 994 0 2 -- Chart
1976 5 27 00 28.0 128.0 994 0 2 -- Chart
1976 5 27 06 28.8 131.0 994 0 2 -- Chart
1976 5 27 12 29.0 134.0 994 0 6 -- Chart
1976 5 27 18 29.2 137.0 994 0 6 -- Chart
1976 5 28 00 29.3 139.9 996 0 6 -- Chart
1976 5 28 06 29.0 143.0 1000 0 6 -- Chart
1976 5 28 12 28.1 146.0 1006 0 6 -- Chart
1976 5 28 18 28.2 150.0 1006 0 6 -- Chart
1976 5 29 00 28.1 154.4 1006 0 6 -- Chart
1976 5 29 06 27.8 157.5 1006 0 6 -- Chart
1976 5 29 12 27.5 159.0 1002 0 6 -- Chart
1976 5 29 18 27.6 160.1 1004 0 6 -- Chart
1976 5 30 00 28.5 161.6 1004 0 6 -- Chart
1976 5 30 06 31.0 163.0 1004 0 6 -- Chart
1976 5 30 12 34.0 165.5 1004 0 6 -- Chart
1976 5 30 18 36.6 168.0 1006 0 6 -- Chart
1976 5 31 00 38.9 170.1 1008 0 6 -- Chart
1976 5 31 06 40.2 173.1 1008 0 6 -- Chart
1976 5 31 12 41.5 177.7 1010 0 6 -- Chart
Japan Meteorological Agency Best Track Data | Correction Date : 1992-10-21
< Typhoon 197604 1976 Season Typhoon 197606 >

Help